Weather Models
Both GFS & NAM
00z 06z 12z 18z
24hr Precip
00z 06z 12z 18z
36hr Simulated radar
00z 06z 12z 18z
SKEWT Soundings
00z 12z
Current Conditions (Updated 5:05am on 10/18/17)
Temperature
 52°
-0.53
55°  
52°  
0
10
20
30
40
50
60
70
80
90
100
Dew Point
37°
39°  
36°  
-20
-10
0
10
20
30
40
50
60
70
80
Wind Chill
52°
55°  
49°  
-20
-10
0
10
20
30
40
50
60
70
80
Wind Chill
Humidity
58%
58% 
53% 
0
10
20
30
40
50
60
70
80
90
100
Barometer
30.34
   Steady
30.34  
30.34  
28.00
28.30
28.60
28.90
29.20
29.50
29.80
30.10
30.40
30.70
31.00
Temperature
Dew Point
Humidity
Pressure
Wind
0mph
  W
Daily Rain
.00
.05
.10
.15
.20
.25
.30
.35
.40
.45
.50
Rain Today
 0.00" 
Month Rain
0.00
0.20
0.40
0.60
0.80
1.00
1.20
1.40
1.60
1.80
2.00
Month Rain
 1.45" 
Year Rain
0.00
5.00
10.00
15.00
20.00
25.00
30.00
35.00
40.00
45.00
50.00
Year Rain
 33.42" 
Sun & Moon Data
Sunrise 7:16am
Sunset 6:18pm
Moonrise 5:51am
Moonset 6:05pm
Moon % 3%
Other Rain Data
Past Hour 0.00 Past 24 Hours 0.00
Past 3 Hours 0.00 Past 7 Days 0.13
Past 6 Hours 0.00
Cloud Height
3570


Current Front Map
Current Satellite map
7 Day Forecast
NWS Forecast for Philadelphia PA
National Weather Service Forecast for: Philadelphia PA
Issued by: National Weather Service Philadelphia, PA
Updated: 3:35 am EDT Oct 18, 2017

Philadelphia
 
Today

Today: Sunny, with a high near 71. Calm wind becoming west around 6 mph in the afternoon.
Sunny
Tonight

Tonight: Clear, with a low around 51. Light southwest wind.
Clear
Thursday

Thursday: Sunny, with a high near 73. Calm wind becoming southwest 5 to 9 mph in the morning.
Sunny
Thursday
Night
Thursday Night: Clear, with a low around 54. Southwest wind 5 to 7 mph.
Clear
Friday

Friday: Sunny, with a high near 74. Northwest wind 5 to 9 mph.
Sunny
Friday
Night
Friday Night: Clear, with a low around 49.
Clear
Saturday

Saturday: Sunny, with a high near 73.
Sunny
Saturday
Night
Saturday Night: Partly cloudy, with a low around 53.
Partly Cloudy
Sunday

Sunday: Mostly sunny, with a high near 74.
Mostly Sunny
Hi 71 °F Lo 51 °F Hi 73 °F Lo 54 °F Hi 74 °F Lo 49 °F Hi 73 °F Lo 53 °F Hi 74 °F

 

Today
 
Sunny, with a high near 71. Calm wind becoming west around 6 mph in the afternoon.
Tonight
 
Clear, with a low around 51. Light southwest wind.
Thursday
 
Sunny, with a high near 73. Calm wind becoming southwest 5 to 9 mph in the morning.
Thursday Night
 
Clear, with a low around 54. Southwest wind 5 to 7 mph.
Friday
 
Sunny, with a high near 74. Northwest wind 5 to 9 mph.
Friday Night
 
Clear, with a low around 49.
Saturday
 
Sunny, with a high near 73.
Saturday Night
 
Partly cloudy, with a low around 53.
Sunday
 
Mostly sunny, with a high near 74.
Sunday Night
 
Partly cloudy, with a low around 57.
Monday
 
Partly sunny, with a high near 75.
Monday Night
 
A chance of showers. Mostly cloudy, with a low around 61. Chance of precipitation is 40%.
Tuesday
 
Showers likely. Mostly cloudy, with a high near 71. Chance of precipitation is 60%.

 

Forecast from NOAA-NWS for Philadelphia PA.

Area Weather Current Conditions
Nearby METAR Reports

KPHL - Philadelphia, Pennsylvania
Updated: Wed, 18-Oct-2017 4:54am EDT
Clear
Clear
 Wind from WSW
Wind: WSW 3 mph , 6 km/h
Temperature: 48°F , 9°C
Dew Point: 41°F , 5°C
Humidity: 76%
Barometer: 30.32 inHg , 1026.8 hPa
Clouds: Clear
Visibility: 10 miles , 16 km
2017/10/18 08:54 KPHL 180854Z 24003KT 10SM CLR 09/05 A3032 RMK AO2 SLP268 T00890050 55002
KMPO - Mt. Pocono, Pennsylvania
Updated: Wed, 18-Oct-2017 4:53am EDT
Clear
Clear
 Wind from NNW
Wind: NNW 6 mph , 9 km/h
Temperature: 41°F , 5°C
Wind Chill: 37°F , 3°C
Dew Point: 36°F , 2°C
Humidity: 81%
Barometer: 30.27 inHg , 1025.1 hPa
Clouds: Clear
Visibility: 10 miles , 16 km
2017/10/18 08:53 KMPO 180853Z AUTO 33005KT 10SM CLR 05/02 A3027 RMK AO2 SLP258 T00500017 53000
 
KACY - Atlantic City, New Jersey
Updated: Wed, 18-Oct-2017 4:54am EDT
Clear
Clear
 Wind from calm
Wind: Calm
Temperature: 43°F , 6°C
Dew Point: 39°F , 4°C
Humidity: 87%
Barometer: 30.33 inHg , 1027.1 hPa
Clouds: Clear
Visibility: 10 miles , 16 km
2017/10/18 08:54 KACY 180854Z 00000KT 10SM CLR 06/04 A3033 RMK AO2 SLP269 T00610039 53002
KMIV - Millville, New Jersey
Updated: Wed, 18-Oct-2017 4:54am EDT
Clear
Clear
 Wind from calm
Wind: Calm
Temperature: 39°F , 4°C
Dew Point: 39°F , 4°C
Humidity: 100%
Barometer: 30.34 inHg , 1027.4 hPa
Clouds: Clear
Visibility: 10 miles , 16 km
2017/10/18 08:54 KMIV 180854Z AUTO 00000KT 10SM CLR 04/04 A3034 RMK AO2 SLP271 T00440039 53002 TSNO
 
KWWD - Wildwood, New Jersey
Updated: Wed, 18-Oct-2017 4:55am EDT
Clear
Clear
 Wind from calm
Wind: Calm
Temperature: 43°F , 6°C
Dew Point: 39°F , 4°C
Humidity: 87%
Barometer: 30.34 inHg , 1027.4 hPa
Clouds: Clear
Visibility: 10 miles , 16 km
2017/10/18 08:55 KWWD 180855Z AUTO 00000KT 10SM CLR 06/04 A3034 RMK AO2 SLP277 T00560044 53003
KDOV - Dover Afb, Delaware
Updated: Wed, 18-Oct-2017 3:58am EDT
Clear
Clear
 Wind from SSW
Wind: SSW 7 mph , 11 km/h
Temperature: 43°F , 6°C
Wind Chill: 39°F , 4°C
Dew Point: 39°F , 4°C
Humidity: 87%
Barometer: 30.31 inHg , 1026.4 hPa
Clouds: Clear
Visibility: 10 miles , 16 km
2017/10/18 07:58 KDOV 180758Z 20006KT 10SM CLR 06/04 A3031 RMK AO2A SLP267 T00620062 $
Severe Weather Map
Recent Forum Post
[Philadelphia] Request for Philly Snow Data by JC February 14, 2017, 08:42:21 PM
[Philadelphia] 2016 -2017 Winter snow forecast by JC December 01, 2016, 04:56:31 AM
[Philadelphia] Winter forecast 2016-2017 by xyonist November 30, 2016, 01:14:08 PM
[Philadelphia] 102.7 last Saturday by JC August 20, 2016, 03:26:22 AM
[Philadelphia] 2015 -2016 Winter snow forecast by JC April 19, 2016, 09:42:40 AM
[Philadelphia] Latest Models on Weekend Storm (Photos) by JC January 23, 2016, 12:01:03 PM
[Philadelphia] Possible large snow storm for end of week ? by JC January 21, 2016, 09:17:47 AM
[Philadelphia] El Nino! by vicente6 September 16, 2015, 01:57:08 AM